WetterOnline ( http://www.wetteronline.de )

Wetter aktuell Harzgerode

Aktuelles Wetter: Harzgerode (405m)

6-stündlich | Neueste Meldungen
Ortszeit Temperatur Wetter
Di, 17.07. 8:00 19.2° C wolkenlos
Di, 17.07. 2:00 13.0° C leicht bewölkt
Mo, 16.07. 20:00 23.3° C wolkenlos
Mo, 16.07. 14:00 24.5° C wolkig
Mo, 16.07. 8:00 17.2° C leicht bewölkt
Mo, 16.07. 2:00 10.9° C wolkenlos
So, 15.07. 20:00 22.3° C wolkenlos
So, 15.07. 14:00 22.9° C leicht bewölkt
Ortszeit Temperatur Wetter
Di, 17.07. 13:30 26.6° C wolkig
Di, 17.07. 13:20 26.6° C wolkig
Di, 17.07. 13:10 25.7° C wolkig
Di, 17.07. 13:00 26.9° C leicht bewölkt
Di, 17.07. 12:50 26.9° C leicht bewölkt
Di, 17.07. 12:40 26.9° C leicht bewölkt
Di, 17.07. 12:30 27.0° C leicht bewölkt
Di, 17.07. 12:00 26.2° C wolkenlos
Di, 17.07. 11:30 25.7° C wolkenlos
Di, 17.07. 11:00 26.4° C wolkenlos
Di, 17.07. 10:30 25.4° C wolkenlos
Ortszeit Relative Feuchte Sichtweite
Di, 17.07. 8:00 54% 35 km
Di, 17.07. 2:00 73% 35 km
Mo, 16.07. 20:00 35% 60 km
Mo, 16.07. 14:00 37% 40 km
Mo, 16.07. 8:00 63% 45 km
Mo, 16.07. 2:00 80% 40 km
So, 15.07. 20:00 36% 70 km
So, 15.07. 14:00 39% 29 km
Ortszeit Relative Feuchte Sichtweite
Di, 17.07. 13:30 31% 40 km
Di, 17.07. 13:20 31% -
Di, 17.07. 13:10 32% -
Di, 17.07. 13:00 30% 30 km
Di, 17.07. 12:50 30% -
Di, 17.07. 12:40 31% -
Di, 17.07. 12:30 31% 30 km
Di, 17.07. 12:00 32% 35 km
Di, 17.07. 11:30 33% 29 km
Di, 17.07. 11:00 33% 20 km
Di, 17.07. 10:30 35% 40 km
Ortszeit Niederschlagsmenge Niederschlagsart
Di, 17.07. 8:00 0.0 l/m2 in 12 Std. -
Di, 17.07. 2:00 0.0 l/m2 in 6 Std. -
Mo, 16.07. 20:00 0.0 l/m2 in 12 Std. -
Mo, 16.07. 14:00 0.0 l/m2 in 6 Std. -
Mo, 16.07. 8:00 0.0 l/m2 in 12 Std. -
Mo, 16.07. 2:00 0.0 l/m2 in 6 Std. -
So, 15.07. 20:00 0.0 l/m2 in 12 Std. -
So, 15.07. 14:00 0.0 l/m2 in 6 Std. -
Ortszeit Niederschlagsmenge Niederschlagsart
Di, 17.07. 13:30 0.0 l/m2 in 1 Std. -
Di, 17.07. 13:20 keine Meldung -
Di, 17.07. 13:10 keine Meldung -
Di, 17.07. 13:00 0.0 l/m2 in 1 Std. -
Di, 17.07. 12:50 keine Meldung -
Di, 17.07. 12:40 keine Meldung -
Di, 17.07. 12:30 0.0 l/m2 in 1 Std. -
Di, 17.07. 12:00 0.0 l/m2 in 1 Std. -
Di, 17.07. 11:30 0.0 l/m2 in 1 Std. -
Di, 17.07. 11:00 0.0 l/m2 in 1 Std. Regen
Di, 17.07. 10:30 0.0 l/m2 in 1 Std. -
Ortszeit Stärke Spitze Richtung
km/h Bft. km/h Grad Sektor
Di, 17.07. 8:00 7 2 14 250° W
Di, 17.07. 2:00 9 2 15 240° SW
Mo, 16.07. 20:00 11 2 29 10° N
Mo, 16.07. 14:00 11 2 32 20° N
Mo, 16.07. 8:00 2 1 11 280° W
Mo, 16.07. 2:00 6 1 19 240° SW
So, 15.07. 20:00 11 2 30 30° NO
So, 15.07. 14:00 9 2 20 60° NO
Ortszeit Stärke Spitze Richtung
km/h Bft. km/h Grad Sektor
Di, 17.07. 13:30 11 2 25 350° N
Di, 17.07. 13:20 11 2 - 350° N
Di, 17.07. 13:10 15 3 - 330° NW
Di, 17.07. 13:00 13 3 31 350° N
Di, 17.07. 12:50 13 3 - 350° N
Di, 17.07. 12:40 13 3 - 350° N
Di, 17.07. 12:30 14 3 32 350° N
Di, 17.07. 12:00 13 3 30 340° N
Di, 17.07. 11:30 13 3 30 10° N
Di, 17.07. 11:00 13 3 28 10° N
Di, 17.07. 10:30 14 3 29 10° N
Ortszeit Untergrenze Bedeckung Gattung
total tief tief mittel hoch
Di, 17.07. 8:00 - 0/8 0/8 - - -
Di, 17.07. 2:00 2100 m 2/8 2/8 - - -
Mo, 16.07. 20:00 - 0/8 0/8 - - -
Mo, 16.07. 14:00 1800 m 7/8 4/8 - - -
Mo, 16.07. 8:00 7500 m 5/8 0/8 - - -
Mo, 16.07. 2:00 - 0/8 0/8 - - -
So, 15.07. 20:00 - 0/8 0/8 - - -
So, 15.07. 14:00 1500 m 2/8 2/8 - - -
Ortszeit Bedeckungsgrad in Achtel und Wolkenuntergrenze
Di, 17.07. 13:30 5(2100m)
Di, 17.07. 13:20 5(2100m)
Di, 17.07. 13:10 6(2100m)
Di, 17.07. 13:00 3(2100m)
Di, 17.07. 12:50 3(2100m)
Di, 17.07. 12:40 2(2100m)
Di, 17.07. 12:30 2(1800m)
Di, 17.07. 12:00 1(1800m)
Di, 17.07. 11:30 keine Wolken
Di, 17.07. 11:00 keine Wolken
Di, 17.07. 10:30 keine Wolken
Ortszeit Luftdruck NN (hPa) Tendenz (hPa in 3 Std.)
Di, 17.07. 8:00 1013 + 0,5
Di, 17.07. 2:00 1014 + 0,4
Mo, 16.07. 20:00 1011 - 0,3
Mo, 16.07. 14:00 1013 - 1,1
Mo, 16.07. 8:00 1015 - 0,3
Mo, 16.07. 2:00 1017 - 0,1
So, 15.07. 20:00 1015 - 0,4
So, 15.07. 14:00 1016 - 1,0
Ortszeit Luftdruck NN (hPa) Tendenz (hPa in 3 Std.)
Di, 17.07. 13:30 1012 - 0,1
Di, 17.07. 13:20 1012 keine Meldung
Di, 17.07. 13:10 1012 keine Meldung
Di, 17.07. 13:00 1012 0,0
Di, 17.07. 12:50 1012 keine Meldung
Di, 17.07. 12:40 1012 keine Meldung
Di, 17.07. 12:30 1012 0,0
Di, 17.07. 12:00 1012 - 0,1
Di, 17.07. 11:30 1012 - 0,2
Di, 17.07. 11:00 1012 - 0,1
Di, 17.07. 10:30 1012 - 0,2
Ortszeit Schneehöhe (cm)
Di, 17.07. 8:00 -
Di, 17.07. 2:00 -
Mo, 16.07. 20:00 -
Mo, 16.07. 14:00 -
Mo, 16.07. 8:00 -
Mo, 16.07. 2:00 -
So, 15.07. 20:00 -
So, 15.07. 14:00 -
Ortszeit Schneehöhe (cm)
Di, 17.07. 13:30 -
Di, 17.07. 13:20 -
Di, 17.07. 13:10 -
Di, 17.07. 13:00 -
Di, 17.07. 12:50 -
Di, 17.07. 12:40 -
Di, 17.07. 12:30 -
Di, 17.07. 12:00 -
Di, 17.07. 11:30 -
Di, 17.07. 11:00 -
Di, 17.07. 10:30 -
Link zu dieser Seite / Seite empfehlen

Das Wetter in ...